METAR Data
IDs: Format: Raw Decoded Include TAF

Data at: 1042 UTC 28 Sep 2021

FNLU 281000Z 27007KT 9999 SCT020 BKN022 25/21 Q1012 NOSIG

TAF FNLU 280500Z 2806/2912 15005KT 8000 BKN020
  BECMG 2808/2810 22005KT 9999
  TEMPO 2812/2816 FEW020
  BECMG 2816/2818 CAVOK


FNCA 281000Z 24007KT 9000 SCT010 BKN016 27/22 Q1013

TAF FNCA 272255Z 2800/2812 22004KT 7000 BKN010
  PROB30
  TEMPO 2806/2812 6000 DZ SCT008 OVC020


No METAR found for FNBG

TAF FNBG 272255Z 2800/2812 24005KT 7000 NSC
  TEMPO 2801/2805 VRB03KT FEW010
  BECMG 2806/2808 CAVOK
  BECMG 2810/2812 31006KT


FNHU 281000Z 24005KT CAVOK 27/12 Q1022

TAF FNHU 272255Z 2800/2812 VRB02KT 7000 FEW010 BKN020
  TEMPO 2802/2806 NSC
  BECMG 2806/2808 CAVOK


No METAR found for FNUE

TAF FNUE 272255Z 2800/2812 34005KT 7000 FEW010
  TEMPO 2805/2809 9999
  BECMG 2810/2812 CAVOK


FNGI 281000Z 24006KT CAVOK 30/05 Q1015

TAF FNGI 272255Z 2800/2812 24009KT 8000 FEW012 BKN020
  TEMPO 2802/2805 7000
  BECMG 2805/2807 CAVOK


FNUB 281000Z 03014KT 9999 FEW040 25/04 Q1023

TAF FNUB 272255Z 2800/2812 22005KT 7000 SCT012
  TEMPO 2805/2810 CAVOK
  BECMG 2810/2812 9999 FEW030


FNMO 281000Z 34008KT 9999 BKN019 23/17 Q1015

TAF FNMO 272255Z 2800/2812 17004KT 8000 OVC010
  TEMPO 2801/2805 VRB03KT 7000
  BECMG 2807/2809 9999
  BECMG 2810/2812 30006KT FEW012


No METAR found for FNUG
No TAF found for FNUG

FNMA 281000Z 27004KT 9999 BKN010 24/20 Q1016

TAF FNMA 272255Z 2800/2812 29004KT 7000 BKN008
  BECMG 2810/2812 VRB02KT 9999


FNSA 281000Z 09005KT 9999 BKN025 26/17 Q1018

TAF FNSA 272255Z 2800/2812 34004KT 7000 BKN010
  PROB40
  TEMPO 2801/2806 2000 BR
  BECMG 2807/2809 VRB02KT 9999 FEW012


FNSO 281000Z 25011KT 9999 SCT010 BKN060 ///// Q////

TAF FNSO 272255Z 2800/2812 23005KT 7000 BKN008
  PROB30
  TEMPO 2808/2812 6000 DZ FEW010 OVC025


No METAR found for FNBC
No TAF found for FNBC

FNSU 281000Z 23011KT 9999 FEW013 26/// Q1012
No TAF found for FNSU

FNDU 281000Z 00000KT 9999 SCT020 FEW032CB ///// Q////

TAF FNDU 272255Z 2800/2812 VRB02KT 7000 SCT010 FEW015TCU BKN020
  PROB40
  TEMPO 2801/2806 3000 BR
  BECMG 2807/2809 FEW020


No METAR found for FNME

TAF FNME 272255Z 2800/2812 34004KT 8000 BKN012
  TEMPO 2801/2805 7000 NSC
  BECMG 2805/2807 CAVOK
  BECMG 2810/2812 25005KT


FNCT 281000Z 29008KT 9999 FEW015 25/20 Q1014

TAF FNCT 272255Z 2800/2812 24004KT 7000 NSC
  TEMPO 2802/2805 VRB03KT FEW009
  BECMG 2806/2808 CAVOK
  BECMG 2810/2812 30005KT


FNKU 281000Z 35005KT CAVOK 26/06 Q1021

TAF FNKU 272255Z 2800/2812 33009KT 7000 FEW012
  TEMPO 2805/2810 CAVOK
  BECMG 2810/2812 VRB02KT 9999 FEW025